• Join FlightAware (Why Join?)
  • Login
  • US Flag 
02:15PM EDT


 

Airport Tracker/Info


-or-


 

Live Flight TrackerFlight Track Log ✈ N770NC ✈ 16-Jun-2013 ✈ KHSV - KATL

Flight Track Log - Related Links

Times and Time Zones

All times are in EDT time to prevent confusion due to time zone crossing. See the N770NC flight status page for this flight to view local times or setup timezone preferences in your user account.

Time Position Orientation Groundspeed Altitude Reporting Facility
EDT Latitude Longitude Course Direction KTS MPH feet Rate Location/Type
02:38PM 34.5858 -86.7625 108° East 194 223 2,400  Level Memphis Center
02:39PM 34.5489 -86.7083 130° Southeast 194 223 4,200 1,920 Climbing Memphis Center
02:41PM 34.5106 -86.4691 90° East  Level Estimated
02:41PM 34.5125 -86.5386 105° East 240 276 8,300  Level Memphis Center
02:42PM 34.4789 -86.3928 109° East  Level Estimated
02:42PM 34.5053 -86.4586 96° East 259 298 10,100  Level Atlanta Center
02:43PM 34.4471 -86.3165 108° East  Level Estimated
02:43PM 34.5092 -86.3553 87° East 294 338 12,400  Level Atlanta Center
02:44PM 34.5156 -86.2447 86° East 305 351 14,400 1,920 Climbing Atlanta Center
02:45PM 34.5258 -86.1289 84° East 319 367 16,300 1,800 Climbing Atlanta Center
02:46PM 34.5256 -86.0131 90° East 333 383 18,000 1,260 Climbing Atlanta Center
02:47PM 34.4900 -85.8936 110° East 350 403 18,900 480 Climbing Atlanta Center
02:48PM 34.4417 -85.7767 117° Southeast 373 429 19,000  Climbing Atlanta Center
02:49PM 34.3831 -85.6344 117° Southeast 413 475 19,000  Level Atlanta Center
02:50PM 34.3264 -85.4928 116° Southeast 466 536 19,000 -600 Level Atlanta Center
02:51PM 34.2756 -85.3536 114° Southeast 466 536 17,900 -1,500 Descending Atlanta Center
02:52PM 34.2308 -85.2447 116° Southeast 429 494 16,100 -1,800 Descending Atlanta Center
02:53PM 34.1775 -85.1361 121° Southeast 393 452 14,300 -1,080 Descending Atlanta Center
02:54PM 34.1178 -85.0525 131° Southeast 344 396 14,000 -180 Descending Atlanta Center
02:55PM 34.0536 -84.9817 138° Southeast 315 362 14,000 -540 Level Atlanta Center
02:56PM 33.9894 -84.9031 135° Southeast 322 371 13,000 -900 Descending Atlanta Center
02:57PM 33.9358 -84.8175 127° Southeast 322 371 12,200 -540 Descending Atlanta Center
02:58PM 33.8861 -84.7369 127° Southeast 309 356 12,000 -180 Descending Atlanta Center
02:58PM 33.8667 -84.7000 122° Southeast 302 348 12,000  Level Atlanta TRACON
02:59PM 33.8167 -84.6167 126° Southeast 313 360 12,000  Level Atlanta TRACON
03:00PM 33.7500 -84.5333 134° Southeast 315 362 12,000 -900 Level Atlanta TRACON
03:01PM 33.7333 -84.4333 101° East 323 372 10,300 -1,620 Descending Atlanta TRACON
03:02PM 33.7333 -84.3500 90° East 306 352 8,800 -1,620 Descending Atlanta TRACON
03:03PM 33.7500 -84.2500 79° East 288 331 7,100 -1,800 Descending Atlanta TRACON
03:04PM 33.7500 -84.1500 90° East 280 322 5,200 -1,020 Descending Atlanta TRACON
03:05PM 33.7500 -84.0667 90° East 254 292 5,100 -60 Descending Atlanta TRACON
03:06PM 33.7333 -84.0000 107° East 240 276 5,100  Level Atlanta TRACON
03:07PM 33.6667 -83.9833 168° South 240 276 5,100  Level Atlanta TRACON
03:08PM 33.6500 -84.0500 253° West 234 269 5,100 -60 Level Atlanta TRACON
03:09PM 33.6500 -84.1333 270° West 213 245 5,000 -360 Descending Atlanta TRACON
03:10PM 33.6500 -84.2000 270° West 202 232 4,400 -900 Descending Atlanta TRACON
03:11PM 33.6500 -84.2667 270° West 208 239 3,300 -1,140 Descending Atlanta TRACON